createdAt,value
2019-03-26T00:03:00.884Z,18.73
2019-03-26T00:08:03.742Z,17.10
2019-03-26T00:13:06.423Z,18.57
2019-03-26T00:18:09.038Z,23.97
2019-03-26T00:23:11.876Z,21.57
2019-03-26T00:28:14.467Z,23.70
2019-03-26T00:33:17.084Z,27.67
2019-03-26T00:38:19.690Z,15.37
2019-03-26T00:43:22.272Z,24.77
2019-03-26T00:48:24.896Z,19.90
2019-03-26T00:53:27.737Z,17.53
2019-03-26T00:58:30.370Z,17.30
2019-03-26T01:03:33.033Z,21.17
2019-03-26T01:08:35.581Z,23.77
2019-03-26T01:13:38.472Z,21.67
2019-03-26T01:18:42.565Z,26.00
2019-03-26T01:23:45.162Z,21.13
2019-03-26T01:28:48.922Z,27.77
2019-03-26T01:33:51.596Z,20.47
2019-03-26T01:38:55.946Z,22.97
2019-03-26T01:43:58.604Z,26.30
2019-03-26T01:49:02.710Z,21.77
2019-03-26T01:54:05.401Z,17.60
2019-03-26T01:59:09.437Z,25.00
2019-03-26T02:04:14.959Z,23.53
2019-03-26T02:09:23.701Z,22.93
2019-03-26T02:14:29.187Z,21.13
2019-03-26T02:19:31.721Z,21.87
2019-03-26T02:24:34.472Z,22.67
2019-03-26T02:29:41.804Z,11.93
2019-03-26T02:34:44.562Z,22.93
2019-03-26T02:39:47.213Z,19.93
2019-03-26T02:44:50.401Z,17.90
2019-03-26T02:49:52.937Z,21.43
2019-03-26T02:54:55.596Z,19.40
2019-03-26T02:59:58.370Z,17.53
2019-03-26T03:05:03.518Z,23.03
2019-03-26T03:10:07.827Z,30.07
2019-03-26T03:15:10.950Z,21.43
2019-03-26T03:20:18.584Z,20.90
2019-03-26T03:25:21.326Z,29.27
2019-03-26T03:30:23.892Z,24.57
2019-03-26T03:35:26.823Z,23.60
2019-03-26T03:40:29.435Z,18.23
2019-03-26T03:45:32.356Z,23.93
2019-03-26T03:50:36.360Z,35.97
2019-03-26T03:55:41.475Z,20.30
2019-03-26T04:00:47.064Z,24.73
2019-03-26T04:06:07.703Z,22.03
2019-03-26T04:10:56.220Z,17.13
2019-03-26T04:15:58.922Z,27.33
2019-03-26T04:21:02.911Z,32.87
2019-03-26T04:26:05.618Z,20.57
2019-03-26T04:31:08.170Z,23.17
2019-03-26T04:36:24.729Z,25.13
2019-03-26T04:41:15.275Z,21.67
2019-03-26T04:46:18.165Z,29.67
2019-03-26T04:51:23.486Z,25.67
2019-03-26T04:56:26.081Z,35.50
2019-03-26T05:01:29.016Z,24.53
2019-03-26T05:06:38.224Z,22.03
2019-03-26T05:11:40.382Z,21.77
2019-03-26T05:16:47.606Z,28.40
2019-03-26T05:21:50.157Z,30.20
2019-03-26T05:26:52.994Z,17.60
2019-03-26T05:31:57.452Z,26.13
2019-03-26T05:37:00.087Z,20.17
2019-03-26T05:42:04.553Z,26.40
2019-03-26T05:47:07.109Z,31.10
2019-03-26T05:52:09.676Z,31.97
2019-03-26T05:57:12.245Z,23.37
2019-03-26T06:02:18.131Z,27.17
2019-03-26T06:07:20.959Z,25.77
2019-03-26T06:12:31.205Z,29.67
2019-03-26T06:17:33.767Z,22.63
2019-03-26T06:22:37.705Z,24.03
2019-03-26T06:27:40.224Z,26.70
2019-03-26T06:32:43.015Z,27.10
2019-03-26T06:37:48.104Z,28.77
2019-03-26T06:42:52.820Z,25.93
2019-03-26T06:47:55.429Z,31.97
2019-03-26T06:53:00.758Z,30.43
2019-03-26T06:58:03.300Z,22.87
2019-03-26T07:03:06.176Z,32.70
2019-03-26T07:08:08.751Z,31.37
2019-03-26T07:13:13.730Z,23.67
2019-03-26T07:18:16.293Z,26.40
2019-03-26T07:23:18.926Z,19.40
2019-03-26T07:28:21.825Z,27.90
2019-03-26T07:33:24.728Z,21.50
2019-03-26T07:38:27.278Z,29.80
2019-03-26T07:43:30.218Z,27.80
2019-03-26T07:48:35.655Z,24.77
2019-03-26T07:53:38.699Z,20.83
2019-03-26T07:58:42.356Z,27.63
2019-03-26T08:03:45.100Z,28.55
2019-03-26T08:08:47.670Z,31.00
2019-03-26T08:13:50.214Z,26.93
2019-03-26T08:18:52.792Z,33.23
2019-03-26T08:23:55.524Z,29.87
2019-03-26T08:29:01.182Z,23.30
2019-03-26T08:34:06.238Z,22.93
2019-03-26T08:39:08.887Z,25.30
2019-03-26T08:44:14.875Z,23.53
2019-03-26T08:49:20.224Z,24.07
2019-03-26T08:54:23.324Z,22.33
2019-03-26T08:59:25.885Z,33.27
2019-03-26T09:04:28.626Z,22.13
2019-03-26T09:09:31.218Z,25.53
2019-03-26T09:14:33.886Z,23.30
2019-03-26T09:19:38.135Z,24.27
2019-03-26T09:24:41.050Z,27.97
2019-03-26T09:29:43.708Z,21.10
2019-03-26T09:34:46.687Z,23.80
2019-03-26T09:39:51.089Z,21.73
2019-03-26T09:44:56.482Z,23.83
2019-03-26T09:49:58.412Z,28.73
2019-03-26T09:55:01.249Z,22.93
2019-03-26T10:00:04.794Z,19.03
2019-03-26T10:05:07.971Z,19.57
2019-03-26T10:10:11.261Z,20.77
2019-03-26T10:15:13.824Z,23.43
2019-03-26T10:20:16.691Z,20.53
2019-03-26T10:25:19.385Z,21.07
2019-03-26T10:30:31.920Z,24.87
2019-03-26T10:35:36.721Z,13.80
2019-03-26T10:40:39.423Z,18.83
2019-03-26T10:45:42.269Z,20.57
2019-03-26T10:50:48.377Z,21.87
2019-03-26T10:55:51.269Z,15.07
2019-03-26T11:00:55.655Z,18.80
2019-03-26T11:05:59.591Z,20.67
2019-03-26T11:11:02.583Z,15.80
2019-03-26T11:16:05.137Z,25.13
2019-03-26T11:21:10.501Z,20.93
2019-03-26T11:26:13.482Z,18.53
2019-03-26T11:31:16.077Z,16.80
2019-03-26T11:36:19.120Z,18.17
2019-03-26T11:41:24.650Z,18.90
2019-03-26T11:46:27.531Z,23.47
2019-03-26T11:51:30.073Z,19.03
2019-03-26T11:56:33.275Z,31.00
2019-03-26T12:01:42.246Z,21.57
2019-03-26T12:06:44.995Z,23.80
2019-03-26T12:11:47.654Z,21.73
2019-03-26T12:16:54.872Z,22.33
2019-03-26T12:21:57.436Z,11.93
2019-03-26T12:27:00.214Z,25.37
2019-03-26T12:32:02.951Z,17.83
2019-03-26T12:37:05.587Z,18.23
2019-03-26T12:42:08.584Z,18.77
2019-03-26T12:47:13.307Z,16.03
2019-03-26T12:52:17.011Z,18.57
2019-03-26T12:57:19.902Z,23.87
2019-03-26T13:02:24.751Z,23.50
2019-03-26T13:07:28.208Z,23.97
2019-03-26T13:12:31.122Z,20.40
2019-03-26T13:17:33.735Z,16.03
2019-03-26T13:22:38.578Z,18.63
2019-03-26T13:27:41.301Z,21.57
2019-03-26T13:32:44.713Z,19.97
2019-03-26T13:37:50.237Z,19.60
2019-03-26T13:42:53.065Z,21.83
2019-03-26T13:47:55.641Z,19.17
2019-03-26T13:52:58.309Z,23.20
2019-03-26T13:58:00.852Z,20.87
2019-03-26T14:03:04.053Z,24.97
2019-03-26T14:08:06.609Z,22.40
2019-03-26T14:13:09.313Z,25.87
2019-03-26T14:18:11.949Z,21.17
2019-03-26T14:23:14.763Z,24.83
2019-03-26T14:28:21.711Z,21.27
2019-03-26T14:33:24.539Z,23.53
2019-03-26T14:38:30.187Z,23.00
2019-03-26T14:43:34.884Z,36.73
2019-03-26T14:48:38.677Z,23.23
2019-03-26T14:53:43.241Z,20.67
2019-03-26T14:58:48.262Z,26.07
2019-03-26T15:03:50.920Z,27.30
2019-03-26T15:08:56.214Z,23.87
2019-03-26T15:14:04.452Z,29.57
2019-03-26T15:19:07.039Z,31.43
2019-03-26T15:24:11.979Z,24.13
2019-03-26T15:29:17.679Z,34.10
2019-03-26T15:34:20.545Z,29.63
2019-03-26T15:39:23.111Z,34.90
2019-03-26T15:44:28.444Z,31.07
2019-03-26T15:49:31.156Z,31.23
2019-03-26T15:54:34.091Z,36.83
2019-03-26T15:59:38.459Z,29.93
2019-03-26T16:04:42.321Z,29.27
2019-03-26T16:09:44.888Z,26.70
2019-03-26T16:14:48.563Z,27.80
2019-03-26T16:19:51.618Z,26.87
2019-03-26T16:24:56.436Z,25.87
2019-03-26T16:29:59.069Z,31.80
2019-03-26T16:35:04.575Z,32.43
2019-03-26T16:40:09.076Z,30.73
2019-03-26T16:45:14.115Z,31.83
2019-03-26T16:50:16.688Z,20.37
2019-03-26T16:55:20.308Z,31.73
2019-03-26T17:00:32.773Z,28.17
2019-03-26T17:05:35.630Z,32.20
2019-03-26T17:10:38.306Z,31.20
2019-03-26T17:15:43.973Z,27.87
2019-03-26T17:20:46.536Z,30.17
2019-03-26T17:25:51.798Z,35.93
2019-03-26T17:30:56.824Z,37.63
2019-03-26T17:35:59.694Z,27.07
2019-03-26T17:41:02.656Z,38.73
2019-03-26T17:46:05.475Z,35.38
2019-03-26T17:51:08.146Z,28.63
2019-03-26T17:56:12.817Z,38.13
2019-03-26T18:01:15.957Z,26.93
2019-03-26T18:06:24.929Z,34.43
2019-03-26T18:11:36.580Z,35.20
2019-03-26T18:16:39.356Z,31.47
2019-03-26T18:21:51.326Z,45.83
2019-03-26T18:26:46.830Z,33.57
2019-03-26T18:31:49.365Z,40.00
2019-03-26T18:36:54.500Z,42.60
2019-03-26T18:41:57.157Z,34.27
2019-03-26T18:47:00.231Z,37.20
2019-03-26T18:52:02.854Z,43.90
2019-03-26T18:57:08.389Z,41.03
2019-03-26T19:02:12.684Z,46.63
2019-03-26T19:07:17.101Z,32.63
2019-03-26T19:12:19.732Z,34.97
2019-03-26T19:17:27.342Z,40.93
2019-03-26T19:22:30.304Z,45.07
2019-03-26T19:27:32.838Z,48.73
2019-03-26T19:32:35.723Z,37.03
2019-03-26T19:37:38.283Z,35.03
2019-03-26T19:42:43.152Z,37.40
2019-03-26T19:47:45.691Z,40.97
2019-03-26T19:52:48.495Z,45.97
2019-03-26T19:57:51.306Z,36.90
2019-03-26T20:02:57.036Z,45.60
2019-03-26T20:07:59.613Z,40.47
2019-03-26T20:13:02.156Z,48.67
2019-03-26T20:18:04.732Z,40.30
2019-03-26T20:23:07.290Z,31.77
2019-03-26T20:28:12.405Z,42.13
2019-03-26T20:33:15.299Z,37.00
2019-03-26T20:38:17.881Z,38.10
2019-03-26T20:43:36.520Z,32.13
2019-03-26T20:48:27.921Z,32.23
2019-03-26T20:53:30.691Z,41.83
2019-03-26T20:58:33.976Z,37.90
2019-03-26T21:03:38.879Z,32.33
2019-03-26T21:08:43.822Z,29.23
2019-03-26T21:13:51.013Z,41.90
2019-03-26T21:18:51.043Z,43.93
2019-03-26T21:23:58.696Z,43.37
2019-03-26T21:29:01.442Z,31.77
2019-03-26T21:34:06.880Z,37.00
2019-03-26T21:39:09.644Z,32.53
2019-03-26T21:44:21.346Z,42.83
2019-03-26T21:49:24.051Z,36.50
2019-03-26T21:54:26.821Z,33.50
2019-03-26T21:59:29.499Z,36.10
2019-03-26T22:04:32.228Z,32.47
2019-03-26T22:09:37.338Z,40.37
2019-03-26T22:14:40.155Z,33.33
2019-03-26T22:19:42.785Z,36.50
2019-03-26T22:24:45.635Z,39.40
2019-03-26T22:29:48.214Z,40.50
2019-03-26T22:34:50.847Z,36.50
2019-03-26T22:39:53.399Z,43.60
2019-03-26T22:44:56.038Z,30.00
2019-03-26T22:49:58.643Z,39.87
2019-03-26T22:55:01.246Z,35.27
2019-03-26T23:00:11.256Z,37.27
2019-03-26T23:05:15.065Z,31.53
2019-03-26T23:10:21.298Z,34.87
2019-03-26T23:15:26.141Z,35.63
2019-03-26T23:20:28.719Z,38.37
2019-03-26T23:25:33.162Z,31.23
2019-03-26T23:30:35.928Z,34.60
2019-03-26T23:35:39.681Z,35.50
2019-03-26T23:40:47.247Z,25.13
2019-03-26T23:45:52.843Z,33.97
2019-03-26T23:50:55.601Z,37.47
2019-03-26T23:55:58.542Z,28.73
